createdAt,value
2018-08-12T00:00:03.726Z,0.20
2018-08-12T00:03:03.654Z,0.20
2018-08-12T00:06:03.642Z,0.30
2018-08-12T00:09:03.594Z,0.20
2018-08-12T00:12:03.590Z,0.30
2018-08-12T00:15:03.560Z,0.30
2018-08-12T00:18:03.505Z,0.30
2018-08-12T00:21:03.461Z,0.30
2018-08-12T00:24:03.434Z,0.30
2018-08-12T00:27:04.639Z,0.30
2018-08-12T00:30:03.368Z,0.30
2018-08-12T00:33:03.323Z,0.30
2018-08-12T00:36:03.303Z,0.30
2018-08-12T00:39:03.951Z,0.30
2018-08-12T00:42:03.259Z,0.20
2018-08-12T00:45:03.186Z,0.30
2018-08-12T00:48:03.167Z,0.20
2018-08-12T00:51:03.128Z,0.30
2018-08-12T00:54:03.116Z,0.30
2018-08-12T00:57:03.054Z,0.20
2018-08-12T01:00:03.036Z,0.30
2018-08-12T01:03:02.980Z,0.30
2018-08-12T01:06:02.960Z,0.20
2018-08-12T01:09:02.936Z,0.20
2018-08-12T01:12:02.901Z,0.30
2018-08-12T01:15:02.863Z,0.30
2018-08-12T01:18:02.831Z,0.20
2018-08-12T01:21:02.799Z,0.30
2018-08-12T01:24:02.784Z,0.30
2018-08-12T01:27:02.902Z,0.30
2018-08-12T01:30:02.701Z,0.20
2018-08-12T01:33:02.690Z,0.30
2018-08-12T01:36:02.680Z,0.20
2018-08-12T01:39:02.597Z,0.20
2018-08-12T01:42:02.562Z,0.30
2018-08-12T01:45:02.527Z,0.30
2018-08-12T01:48:02.501Z,0.40
2018-08-12T01:51:02.462Z,0.30
2018-08-12T01:54:02.449Z,0.20
2018-08-12T01:57:02.395Z,0.20
2018-08-12T02:00:02.379Z,0.20
2018-08-12T02:03:02.311Z,0.20
2018-08-12T02:06:02.322Z,0.30
2018-08-12T02:09:02.250Z,0.20
2018-08-12T02:12:02.226Z,0.30
2018-08-12T02:15:02.181Z,0.30
2018-08-12T02:18:02.170Z,0.30
2018-08-12T02:21:02.114Z,0.20
2018-08-12T02:24:02.109Z,0.20
2018-08-12T02:27:02.069Z,0.20
2018-08-12T02:30:02.025Z,0.20
2018-08-12T02:33:01.973Z,0.20
2018-08-12T02:36:01.977Z,0.20
2018-08-12T02:39:01.923Z,0.30
2018-08-12T02:42:01.908Z,0.20
2018-08-12T02:45:01.849Z,0.20
2018-08-12T02:48:01.838Z,0.20
2018-08-12T02:51:01.779Z,0.20
2018-08-12T02:54:01.756Z,0.20
2018-08-12T02:57:02.417Z,0.20
2018-08-12T03:00:01.687Z,0.20
2018-08-12T03:03:01.636Z,0.20
2018-08-12T03:06:01.623Z,0.20
2018-08-12T03:09:01.571Z,0.20
2018-08-12T03:12:01.559Z,0.20
2018-08-12T03:15:01.527Z,0.20
2018-08-12T03:18:01.482Z,0.20
2018-08-12T03:21:01.445Z,0.30
2018-08-12T03:24:01.421Z,0.20
2018-08-12T03:27:01.373Z,0.20
2018-08-12T03:30:01.492Z,0.20
2018-08-12T03:33:01.321Z,0.20
2018-08-12T03:36:02.280Z,0.20
2018-08-12T03:39:01.237Z,0.20
2018-08-12T03:42:01.215Z,0.20
2018-08-12T03:45:01.179Z,0.30
2018-08-12T03:48:01.164Z,0.30
2018-08-12T03:51:01.107Z,0.20
2018-08-12T03:54:01.927Z,0.20
2018-08-12T03:57:01.040Z,0.20
2018-08-12T04:00:01.016Z,0.30
2018-08-12T04:03:00.975Z,0.30
2018-08-12T04:06:00.957Z,0.30
2018-08-12T04:09:00.898Z,0.30
2018-08-12T04:12:00.894Z,0.30
2018-08-12T04:15:00.852Z,0.30
2018-08-12T04:18:00.814Z,0.30
2018-08-12T04:21:00.843Z,0.30
2018-08-12T04:24:00.769Z,0.20
2018-08-12T04:27:00.711Z,0.20
2018-08-12T04:30:00.717Z,0.30
2018-08-12T04:33:00.653Z,0.30
2018-08-12T04:36:00.627Z,0.20
2018-08-12T04:39:00.569Z,0.30
2018-08-12T04:42:00.550Z,0.30
2018-08-12T04:45:00.493Z,0.30
2018-08-12T04:48:00.484Z,0.40
2018-08-12T04:51:00.451Z,0.30
2018-08-12T04:54:00.404Z,0.30
2018-08-12T04:57:00.399Z,0.30
2018-08-12T05:00:00.363Z,0.20
2018-08-12T05:03:00.311Z,0.30
2018-08-12T05:06:00.273Z,0.20
2018-08-12T05:09:00.287Z,0.20
2018-08-12T05:12:00.219Z,0.30
2018-08-12T05:15:00.174Z,0.20
2018-08-12T05:18:00.144Z,0.20
2018-08-12T05:21:00.104Z,0.30
2018-08-12T05:24:00.077Z,0.20
2018-08-12T05:27:00.033Z,0.20
2018-08-12T05:30:00.036Z,0.20
2018-08-12T05:32:59.981Z,0.30
2018-08-12T05:35:59.999Z,0.30
2018-08-12T05:38:59.890Z,0.30
2018-08-12T05:41:59.869Z,0.20
2018-08-12T05:44:59.873Z,0.20
2018-08-12T05:47:59.824Z,0.20
2018-08-12T05:50:59.802Z,0.20
2018-08-12T05:53:59.743Z,0.20
2018-08-12T05:56:59.693Z,0.20
2018-08-12T05:59:59.681Z,0.20
2018-08-12T06:02:59.649Z,0.20
2018-08-12T06:05:59.604Z,0.20
2018-08-12T06:08:59.621Z,0.20
2018-08-12T06:11:59.549Z,0.20
2018-08-12T06:14:59.494Z,0.20
2018-08-12T06:17:59.485Z,0.20
2018-08-12T06:20:59.423Z,0.20
2018-08-12T06:23:59.460Z,0.10
2018-08-12T06:26:59.766Z,0.10
2018-08-12T06:29:59.361Z,0.10
2018-08-12T06:32:59.310Z,0.20
2018-08-12T06:35:59.305Z,0.10
2018-08-12T06:38:59.344Z,0.20
2018-08-12T06:41:59.209Z,0.20
2018-08-12T06:44:59.174Z,0.10
2018-08-12T06:47:59.201Z,0.30
2018-08-12T06:50:59.109Z,0.10
2018-08-12T06:53:59.085Z,0.10
2018-08-12T06:56:59.347Z,0.10
2018-08-12T06:59:59.040Z,0.10
2018-08-12T07:02:59.048Z,0.10
2018-08-12T07:05:59.046Z,0.10
2018-08-12T07:08:59.019Z,0.10
2018-08-12T07:11:58.904Z,0.10
2018-08-12T07:14:58.891Z,0.10
2018-08-12T07:17:58.852Z,0.10
2018-08-12T07:20:58.862Z,0.10
2018-08-12T07:23:58.870Z,0.10
2018-08-12T07:26:58.807Z,0.10
2018-08-12T07:29:58.877Z,0.10
2018-08-12T07:32:58.819Z,0.10
2018-08-12T07:35:58.663Z,0.10
2018-08-12T07:38:58.605Z,0.10
2018-08-12T07:41:58.593Z,0.10
2018-08-12T07:44:59.560Z,0.10
2018-08-12T07:47:58.554Z,0.10
2018-08-12T07:50:58.509Z,0.10
2018-08-12T07:53:58.499Z,0.10
2018-08-12T07:56:58.461Z,0.10
2018-08-12T07:59:58.510Z,0.10
2018-08-12T08:02:58.362Z,0.10
2018-08-12T08:05:58.402Z,0.10
2018-08-12T08:08:59.961Z,0.10
2018-08-12T08:11:58.316Z,0.10
2018-08-12T08:14:58.244Z,0.10
2018-08-12T08:17:58.213Z,0.10
2018-08-12T08:20:58.304Z,0.10
2018-08-12T08:23:58.162Z,0.10
2018-08-12T08:26:58.142Z,0.10
2018-08-12T08:29:59.913Z,0.10
2018-08-12T08:32:58.068Z,0.10
2018-08-12T08:35:58.046Z,0.20
2018-08-12T08:38:57.994Z,0.10
2018-08-12T08:41:58.015Z,0.20
2018-08-12T08:44:58.944Z,0.20
2018-08-12T08:47:57.980Z,0.10
2018-08-12T08:50:57.880Z,0.20
2018-08-12T08:53:57.864Z,0.20
2018-08-12T08:56:57.833Z,0.10
2018-08-12T08:59:57.802Z,0.10
2018-08-12T09:02:57.769Z,0.10
2018-08-12T09:05:57.751Z,0.20
2018-08-12T09:08:57.929Z,0.10
2018-08-12T09:11:57.679Z,0.20
2018-08-12T09:14:57.632Z,0.20
2018-08-12T09:17:57.633Z,0.10
2018-08-12T09:20:57.577Z,0.10
2018-08-12T09:23:59.449Z,0.10
2018-08-12T09:26:57.524Z,0.10
2018-08-12T09:29:57.500Z,0.20
2018-08-12T09:32:57.463Z,0.20
2018-08-12T09:35:57.520Z,0.30
2018-08-12T09:38:57.536Z,0.30
2018-08-12T09:41:57.416Z,0.30
2018-08-12T09:44:57.424Z,0.30
2018-08-12T09:47:57.378Z,0.30
2018-08-12T09:50:58.285Z,0.30
2018-08-12T09:53:57.276Z,0.40
2018-08-12T09:56:57.229Z,0.20
2018-08-12T09:59:57.346Z,0.20
2018-08-12T10:02:57.168Z,0.30
2018-08-12T10:05:57.306Z,0.20
2018-08-12T10:08:57.176Z,0.30
2018-08-12T10:11:57.154Z,0.30
2018-08-12T10:14:57.259Z,0.30
2018-08-12T10:17:58.009Z,0.40
2018-08-12T10:20:57.092Z,0.40
2018-08-12T10:23:57.152Z,0.30
2018-08-12T10:26:56.995Z,0.40
2018-08-12T10:29:56.986Z,0.30
2018-08-12T10:32:56.945Z,0.20
2018-08-12T10:35:56.897Z,0.20
2018-08-12T10:38:56.874Z,0.20
2018-08-12T10:41:56.840Z,0.30
2018-08-12T10:44:56.795Z,0.40
2018-08-12T10:47:56.793Z,0.70
2018-08-12T10:50:56.920Z,0.60
2018-08-12T10:53:56.732Z,0.80
2018-08-12T10:56:56.667Z,0.70
2018-08-12T10:59:56.731Z,0.50
2018-08-12T11:02:56.625Z,0.40
2018-08-12T11:05:56.655Z,0.60
2018-08-12T11:08:56.556Z,0.70
2018-08-12T11:11:56.593Z,0.90
2018-08-12T11:14:56.513Z,0.90
2018-08-12T11:17:56.511Z,0.50
2018-08-12T11:20:56.480Z,0.60
2018-08-12T11:23:56.456Z,0.80
2018-08-12T11:26:56.407Z,0.80
2018-08-12T11:29:56.399Z,0.90
2018-08-12T11:32:56.370Z,1.00
2018-08-12T11:35:56.358Z,1.10
2018-08-12T11:38:56.359Z,0.80
2018-08-12T11:41:56.297Z,0.70
2018-08-12T11:44:56.279Z,0.60
2018-08-12T11:47:56.252Z,0.30
2018-08-12T11:50:56.238Z,0.10
2018-08-12T11:53:56.291Z,0.20
2018-08-12T11:56:56.186Z,0.30
2018-08-12T11:59:56.159Z,0.40
2018-08-12T12:02:56.186Z,0.50
2018-08-12T12:05:59.432Z,0.70
2018-08-12T12:08:56.926Z,1.00
2018-08-12T12:11:56.118Z,1.10
2018-08-12T12:14:56.005Z,1.40
2018-08-12T12:17:55.987Z,1.50
2018-08-12T12:20:55.932Z,1.40
2018-08-12T12:23:55.918Z,1.30
2018-08-12T12:26:56.466Z,1.20
2018-08-12T12:29:55.872Z,1.20
2018-08-12T12:32:55.882Z,1.30
2018-08-12T12:35:55.846Z,1.40
2018-08-12T12:38:55.802Z,1.60
2018-08-12T12:41:55.855Z,1.50
2018-08-12T12:44:55.760Z,1.40
2018-08-12T12:47:55.776Z,1.20
2018-08-12T12:50:55.690Z,1.10
2018-08-12T12:53:55.800Z,1.10
2018-08-12T12:56:55.685Z,0.80
2018-08-12T12:59:55.668Z,0.90
2018-08-12T13:02:55.599Z,0.80
2018-08-12T13:05:55.754Z,0.90
2018-08-12T13:08:55.553Z,0.80
2018-08-12T13:11:55.542Z,0.70
2018-08-12T13:14:55.525Z,0.80
2018-08-12T13:17:55.533Z,0.80
2018-08-12T13:20:55.558Z,0.80
2018-08-12T13:23:55.455Z,0.80
2018-08-12T13:26:55.441Z,0.70
2018-08-12T13:29:55.387Z,0.60
2018-08-12T13:32:55.470Z,0.70
2018-08-12T13:35:55.362Z,0.60
2018-08-12T13:38:55.301Z,0.70
2018-08-12T13:41:55.288Z,0.60
2018-08-12T13:44:55.332Z,0.40
2018-08-12T13:47:55.289Z,0.40
2018-08-12T13:50:55.218Z,0.40
2018-08-12T13:53:55.187Z,0.20
2018-08-12T13:56:55.239Z,0.20
2018-08-12T13:59:55.171Z,0.30
2018-08-12T14:02:55.123Z,0.30
2018-08-12T14:05:55.099Z,0.30
2018-08-12T14:08:55.090Z,0.20
2018-08-12T14:11:55.044Z,0.20
2018-08-12T14:14:55.080Z,0.30
2018-08-12T14:17:54.984Z,0.30
2018-08-12T14:20:54.950Z,0.30
2018-08-12T14:23:54.996Z,0.20
2018-08-12T14:26:54.883Z,0.30
2018-08-12T14:29:54.876Z,0.30
2018-08-12T14:32:54.892Z,0.30
2018-08-12T14:35:54.820Z,0.10
2018-08-12T14:38:54.779Z,0.10
2018-08-12T14:41:54.760Z,0.00
2018-08-12T14:44:54.712Z,0.00
2018-08-12T14:47:54.694Z,0.00
2018-08-12T14:50:54.659Z,0.10
2018-08-12T14:53:54.637Z,0.10
2018-08-12T14:56:54.637Z,0.10
2018-08-12T14:59:54.607Z,0.10
2018-08-12T15:02:54.555Z,0.10
2018-08-12T15:05:54.735Z,0.10
2018-08-12T15:08:54.492Z,0.00
2018-08-12T15:11:54.464Z,0.10
2018-08-12T15:14:54.423Z,0.10
2018-08-12T15:17:54.423Z,0.10
2018-08-12T15:20:54.374Z,0.10
2018-08-12T15:23:54.447Z,0.20
2018-08-12T15:26:54.322Z,0.20
2018-08-12T15:29:54.372Z,0.20
2018-08-12T15:32:54.385Z,0.20
2018-08-12T15:35:54.364Z,0.10
2018-08-12T15:38:54.316Z,0.10
2018-08-12T15:41:54.328Z,0.10
2018-08-12T15:44:54.321Z,0.10
2018-08-12T15:47:54.144Z,0.10
2018-08-12T15:50:54.204Z,0.10
2018-08-12T15:53:54.087Z,0.10
2018-08-12T15:56:54.140Z,0.10
2018-08-12T15:59:54.036Z,0.10
2018-08-12T16:02:53.980Z,0.10
2018-08-12T16:05:53.973Z,0.10
2018-08-12T16:08:53.934Z,0.10
2018-08-12T16:11:53.926Z,0.00
2018-08-12T16:14:53.853Z,0.00
2018-08-12T16:17:53.843Z,0.00
2018-08-12T16:20:53.803Z,0.00
2018-08-12T16:23:53.776Z,0.00
2018-08-12T16:26:53.735Z,0.00
2018-08-12T16:29:53.747Z,0.00
2018-08-12T16:32:53.675Z,0.00
2018-08-12T16:35:53.660Z,0.00
2018-08-12T16:38:53.633Z,0.00
2018-08-12T16:41:53.652Z,0.00
2018-08-12T16:44:53.559Z,0.00
2018-08-12T16:47:53.539Z,0.00
2018-08-12T16:50:53.649Z,0.00
2018-08-12T16:53:53.537Z,0.00
2018-08-12T16:56:54.700Z,0.00
2018-08-12T16:59:53.590Z,0.00
2018-08-12T17:02:53.469Z,0.10
2018-08-12T17:05:53.412Z,0.00
2018-08-12T17:08:53.385Z,0.00
2018-08-12T17:11:53.417Z,0.00
2018-08-12T17:14:53.268Z,0.00
2018-08-12T17:17:53.271Z,0.00
2018-08-12T17:20:53.199Z,0.00
2018-08-12T17:23:53.214Z,0.00
2018-08-12T17:26:53.167Z,0.00
2018-08-12T17:29:53.117Z,0.00
2018-08-12T17:32:53.069Z,0.00
2018-08-12T17:35:53.096Z,0.00
2018-08-12T17:38:53.126Z,0.10
2018-08-12T17:41:52.991Z,0.00
2018-08-12T17:44:53.968Z,0.00
2018-08-12T17:47:52.959Z,0.10
2018-08-12T17:50:52.877Z,0.10
2018-08-12T17:53:52.854Z,0.10
2018-08-12T17:56:52.808Z,0.10
2018-08-12T17:59:52.854Z,0.00
2018-08-12T18:02:52.754Z,0.10
2018-08-12T18:05:52.722Z,0.00
2018-08-12T18:08:52.672Z,0.00
2018-08-12T18:11:52.676Z,0.10
2018-08-12T18:14:52.623Z,0.10
2018-08-12T18:17:52.591Z,0.00
2018-08-12T18:20:52.640Z,0.10
2018-08-12T18:23:52.535Z,0.10
2018-08-12T18:26:52.495Z,0.10
2018-08-12T18:29:52.482Z,0.10
2018-08-12T18:32:52.421Z,0.10
2018-08-12T18:35:52.395Z,0.10
2018-08-12T18:38:52.391Z,0.10
2018-08-12T18:41:52.337Z,0.10
2018-08-12T18:44:52.276Z,0.10
2018-08-12T18:47:52.326Z,0.10
2018-08-12T18:50:52.221Z,0.10
2018-08-12T18:53:52.233Z,0.10
2018-08-12T18:56:52.314Z,0.10
2018-08-12T18:59:52.159Z,0.00
2018-08-12T19:02:52.124Z,0.10
2018-08-12T19:05:52.133Z,0.10
2018-08-12T19:08:52.017Z,0.10
2018-08-12T19:11:52.006Z,0.10
2018-08-12T19:14:51.955Z,0.10
2018-08-12T19:17:51.945Z,0.10
2018-08-12T19:20:51.895Z,0.10
2018-08-12T19:23:51.875Z,0.10
2018-08-12T19:26:51.817Z,0.10
2018-08-12T19:29:51.794Z,0.10
2018-08-12T19:32:51.758Z,0.10
2018-08-12T19:35:51.734Z,0.10
2018-08-12T19:38:51.701Z,0.10
2018-08-12T19:41:51.696Z,0.10
2018-08-12T19:44:51.624Z,0.10
2018-08-12T19:47:51.634Z,0.10
2018-08-12T19:50:51.556Z,0.10
2018-08-12T19:53:51.554Z,0.10
2018-08-12T19:56:51.801Z,0.10
2018-08-12T19:59:51.482Z,0.10
2018-08-12T20:02:51.421Z,0.10
2018-08-12T20:05:51.501Z,0.10
2018-08-12T20:08:51.359Z,0.10
2018-08-12T20:11:51.394Z,0.10
2018-08-12T20:14:51.304Z,0.10
2018-08-12T20:17:51.277Z,0.10
2018-08-12T20:20:51.234Z,0.10
2018-08-12T20:23:51.220Z,0.10
2018-08-12T20:26:51.173Z,0.10
2018-08-12T20:29:51.130Z,0.10
2018-08-12T20:32:51.096Z,0.10
2018-08-12T20:35:51.075Z,0.10
2018-08-12T20:38:51.027Z,0.10
2018-08-12T20:41:51.031Z,0.10
2018-08-12T20:44:50.960Z,0.10
2018-08-12T20:47:50.940Z,0.10
2018-08-12T20:50:50.967Z,0.10
2018-08-12T20:53:50.987Z,0.10
2018-08-12T20:56:50.896Z,0.10
2018-08-12T20:59:50.870Z,0.10
2018-08-12T21:02:50.833Z,0.10
2018-08-12T21:05:50.788Z,0.10
2018-08-12T21:08:50.725Z,0.10
2018-08-12T21:11:50.769Z,0.10
2018-08-12T21:14:50.635Z,0.20
2018-08-12T21:17:50.610Z,0.20
2018-08-12T21:20:50.603Z,0.10
2018-08-12T21:23:50.558Z,0.10
2018-08-12T21:26:50.508Z,0.10
2018-08-12T21:29:50.478Z,0.10
2018-08-12T21:32:50.432Z,0.10
2018-08-12T21:35:50.448Z,0.10
2018-08-12T21:38:50.378Z,0.10
2018-08-12T21:41:50.372Z,0.10
2018-08-12T21:44:50.311Z,0.20
2018-08-12T21:47:50.493Z,0.20
2018-08-12T21:50:50.248Z,0.10
2018-08-12T21:53:50.228Z,0.10
2018-08-12T21:56:50.200Z,0.10
2018-08-12T21:59:50.152Z,0.10
2018-08-12T22:02:50.100Z,0.10
2018-08-12T22:05:50.129Z,0.10
2018-08-12T22:08:50.047Z,0.10
2018-08-12T22:11:50.028Z,0.10
2018-08-12T22:14:49.973Z,0.10
2018-08-12T22:17:49.938Z,0.10
2018-08-12T22:20:49.906Z,0.10
2018-08-12T22:23:49.894Z,0.10
2018-08-12T22:26:49.850Z,0.10
2018-08-12T22:29:49.815Z,0.10
2018-08-12T22:32:49.776Z,0.20
2018-08-12T22:35:49.753Z,0.10
2018-08-12T22:38:49.722Z,0.10
2018-08-12T22:41:49.671Z,0.10
2018-08-12T22:44:49.674Z,0.10
2018-08-12T22:47:49.638Z,0.10
2018-08-12T22:50:49.573Z,0.10
2018-08-12T22:53:49.564Z,0.20
2018-08-12T22:56:49.513Z,0.10
2018-08-12T22:59:49.502Z,0.10
2018-08-12T23:02:49.430Z,0.10
2018-08-12T23:05:49.436Z,0.10
2018-08-12T23:08:49.403Z,0.10
2018-08-12T23:11:49.371Z,0.10
2018-08-12T23:14:49.292Z,0.10
2018-08-12T23:17:50.997Z,0.10
2018-08-12T23:20:49.228Z,0.10
2018-08-12T23:23:49.201Z,0.10
2018-08-12T23:26:49.187Z,0.10
2018-08-12T23:29:49.251Z,0.10
2018-08-12T23:32:49.169Z,0.10
2018-08-12T23:35:49.120Z,0.10
2018-08-12T23:38:49.103Z,0.10
2018-08-12T23:41:49.052Z,0.10
2018-08-12T23:44:48.976Z,0.10
2018-08-12T23:47:49.038Z,0.10
2018-08-12T23:50:48.905Z,0.10
2018-08-12T23:53:48.977Z,0.10
2018-08-12T23:56:48.852Z,0.10
2018-08-12T23:59:49.950Z,0.10
